Time;durP1;ratioP1;P1;durP2;ratioP2;P2;SDS_P1;SDS_P2;PMS_P1;PMS_P2;Temp;Humidity;BMP_temperature;BMP_pressure;BME280_temperature;BME280_humidity;BME280_pressure;Samples;Min_cycle;Max_cycle;Signal;HPM_P1;HPM_P2
2024/01/21 00:01:17;;;;;;;1.40;1.03;;;2.00;1.00;;;;;;5012656;28;20191;-92
2024/01/21 00:03:43;;;;;;;0.47;0.47;;;2.00;1.00;;;;;;4996811;28;20228;-92
2024/01/21 00:06:09;;;;;;;0.70;0.70;;;2.00;1.00;;;;;;5012666;28;20536;-92
2024/01/21 00:08:35;;;;;;;2.07;1.87;;;2.00;1.00;;;;;;4996320;28;20530;-91
2024/01/21 00:11:00;;;;;;;3.50;1.37;;;2.00;1.00;;;;;;5012491;28;20294;-92
2024/01/21 00:13:26;;;;;;;1.70;1.13;;;1.90;1.00;;;;;;5013767;28;20179;-91
2024/01/21 00:15:52;;;;;;;1.17;1.17;;;1.90;1.00;;;;;;5016351;28;20183;-92
2024/01/21 00:18:18;;;;;;;0.83;0.83;;;1.90;1.00;;;;;;5000104;28;20180;-92
2024/01/21 00:20:44;;;;;;;4.43;1.53;;;1.90;99.90;;;;;;5016254;28;20183;-93
2024/01/21 00:23:10;;;;;;;2.80;2.57;;;1.90;99.90;;;;;;5016562;28;20260;-92
2024/01/21 00:25:35;;;;;;;2.00;1.90;;;1.90;99.90;;;;;;5000449;28;20275;-91
2024/01/21 00:28:01;;;;;;;1.60;1.50;;;1.80;99.90;;;;;;5016061;28;20188;-92
2024/01/21 00:30:27;;;;;;;0.93;0.90;;;1.80;99.90;;;;;;4999773;28;20190;-91
2024/01/21 00:32:53;;;;;;;1.73;1.63;;;1.80;99.90;;;;;;4999600;28;20245;-92
2024/01/21 00:35:19;;;;;;;0.33;0.33;;;1.80;99.90;;;;;;4999635;28;20503;-92
2024/01/21 00:37:45;;;;;;;2.03;1.90;;;1.80;99.90;;;;;;4999731;28;20197;-91
2024/01/21 00:40:11;;;;;;;5.33;2.67;;;1.80;99.90;;;;;;4999788;28;20184;-91
2024/01/21 00:42:37;;;;;;;0.70;0.70;;;1.80;99.90;;;;;;4999784;28;20260;-91
2024/01/21 00:45:03;;;;;;;1.50;1.50;;;1.80;99.90;;;;;;5015667;28;20175;-93
2024/01/21 00:47:30;;;;;;;1.27;1.17;;;1.80;85.70;;;;;;4999415;28;20192;-92
2024/01/21 00:49:56;;;;;;;2.00;1.03;;;1.80;43.30;;;;;;4999463;28;20704;-92
2024/01/21 00:52:22;;;;;;;2.20;2.00;;;1.80;15.40;;;;;;4999989;28;20195;-91
2024/01/21 00:54:48;;;;;;;1.87;1.77;;;1.80;1.00;;;;;;4999908;28;20620;-92
2024/01/21 00:57:13;;;;;;;0.73;0.73;;;1.80;1.00;;;;;;4999235;28;20195;-92
2024/01/21 00:59:39;;;;;;;1.70;1.60;;;1.80;1.00;;;;;;4999289;28;20197;-89
2024/01/21 01:02:05;;;;;;;0.93;0.63;;;1.90;1.00;;;;;;4998770;28;20678;-91
2024/01/21 01:04:31;;;;;;;1.00;0.90;;;2.00;1.00;;;;;;4999373;28;20187;-91
2024/01/21 01:06:59;;;;;;;0.57;0.57;;;2.00;1.00;;;;;;5015392;28;20191;-91
2024/01/21 01:09:25;;;;;;;2.43;0.60;;;2.10;1.00;;;;;;4999144;28;20183;-92
2024/01/21 01:11:50;;;;;;;0.97;0.97;;;2.10;1.00;;;;;;4998192;28;20231;-93
2024/01/21 01:14:16;;;;;;;5.83;1.83;;;2.20;1.00;;;;;;5048624;28;20278;-91
2024/01/21 01:16:42;;;;;;;0.67;0.67;;;2.20;1.00;;;;;;5015238;28;20249;-92
2024/01/21 01:19:08;;;;;;;2.93;2.73;;;2.20;1.00;;;;;;5015170;28;20180;-92
2024/01/21 01:21:34;;;;;;;0.83;0.83;;;2.20;99.90;;;;;;5015614;28;20233;-93
2024/01/21 01:24:01;;;;;;;0.60;0.60;;;2.20;99.90;;;;;;5014528;28;20187;-92
2024/01/21 01:26:26;;;;;;;1.13;1.13;;;2.20;99.90;;;;;;4997844;28;20707;-92
2024/01/21 01:28:52;;;;;;;0.70;0.70;;;2.20;99.90;;;;;;4998551;28;20191;-90
2024/01/21 01:31:19;;;;;;;1.37;0.70;;;2.20;99.90;;;;;;4999008;28;20180;-92
2024/01/21 01:33:45;;;;;;;1.07;1.07;;;2.20;99.90;;;;;;5014808;28;20194;-92
2024/01/21 01:36:10;;;;;;;1.37;0.73;;;2.20;99.90;;;;;;5015152;28;20172;-92
2024/01/21 01:38:37;;;;;;;0.30;0.30;;;2.20;99.90;;;;;;5015143;28;20184;-93
2024/01/21 01:41:02;;;;;;;0.60;0.60;;;2.10;99.90;;;;;;4998807;28;20214;-92
2024/01/21 01:43:28;;;;;;;1.80;1.63;;;2.10;99.90;;;;;;5014820;28;20235;-93
2024/01/21 01:45:54;;;;;;;1.90;1.13;;;2.00;43.20;;;;;;4998748;28;20183;-92
2024/01/21 01:48:22;;;;;;;0.60;0.60;;;2.00;3.80;;;;;;4998244;28;20179;-93
2024/01/21 01:50:49;;;;;;;1.63;1.53;;;1.90;1.00;;;;;;4998606;28;20194;-93
2024/01/21 01:53:16;;;;;;;1.70;1.60;;;1.90;1.00;;;;;;5014490;28;20237;-92
2024/01/21 01:55:44;;;;;;;1.23;1.07;;;1.80;1.00;;;;;;5014388;28;20215;-91
2024/01/21 01:58:14;;;;;;;1.00;1.00;;;1.80;1.00;;;;;;5014426;28;20190;-91
2024/01/21 02:00:41;;;;;;;1.23;0.93;;;1.70;1.00;;;;;;5014334;28;20251;-92
2024/01/21 02:03:08;;;;;;;0.80;0.60;;;1.70;1.00;;;;;;5014171;28;20245;-93
2024/01/21 02:05:34;;;;;;;0.97;0.97;;;1.70;1.00;;;;;;4998210;28;20196;-93
2024/01/21 02:08:00;;;;;;;0.93;0.93;;;1.70;1.00;;;;;;5014427;28;20176;-92
2024/01/21 02:10:30;;;;;;;0.40;0.40;;;1.70;1.00;;;;;;5013917;28;20223;-92
2024/01/21 02:12:56;;;;;;;1.47;1.10;;;1.70;1.00;;;;;;5014874;28;20237;-92
2024/01/21 02:15:22;;;;;;;0.63;0.63;;;1.70;1.00;;;;;;4998209;28;20183;-91
2024/01/21 02:17:48;;;;;;;1.70;1.60;;;1.70;1.00;;;;;;4997696;28;20270;-93
2024/01/21 02:20:15;;;;;;;0.90;0.90;;;1.70;99.90;;;;;;4997993;28;20640;-90
2024/01/21 02:22:41;;;;;;;1.03;1.03;;;1.60;99.90;;;;;;5013827;28;20203;-91
2024/01/21 02:25:08;;;;;;;1.27;1.10;;;1.70;99.90;;;;;;4998230;28;20187;-91
2024/01/21 02:27:35;;;;;;;0.60;0.60;;;1.80;99.90;;;;;;5013635;28;20203;-90
2024/01/21 02:30:02;;;;;;;0.60;0.60;;;1.80;99.90;;;;;;4997331;28;20245;-92
2024/01/21 02:32:28;;;;;;;0.30;0.30;;;1.90;99.90;;;;;;5013774;28;20186;-91
2024/01/21 02:34:54;;;;;;;0.70;0.70;;;1.90;99.90;;;;;;5013759;28;20556;-92
2024/01/21 02:37:20;;;;;;;0.87;0.70;;;1.90;99.90;;;;;;5014119;28;20665;-92
2024/01/21 02:39:45;;;;;;;1.37;0.87;;;2.00;99.90;;;;;;5013486;28;20198;-91
2024/01/21 02:42:11;;;;;;;0.50;0.50;;;2.00;99.90;;;;;;5013612;28;20298;-88
2024/01/21 02:44:37;;;;;;;1.07;0.50;;;2.10;99.90;;;;;;4997420;28;20624;-91
2024/01/21 02:47:03;;;;;;;1.00;1.00;;;2.10;99.90;;;;;;4997682;28;20190;-91
2024/01/21 02:49:29;;;;;;;1.23;1.13;;;2.10;99.90;;;;;;5013878;28;20608;-91
2024/01/21 02:51:58;;;;;;;0.93;0.93;;;2.10;99.90;;;;;;5014831;28;20210;-92
2024/01/21 02:54:25;;;;;;;0.90;0.90;;;2.10;99.90;;;;;;5013392;28;20183;-93
2024/01/21 02:56:51;;;;;;;1.17;1.10;;;2.10;99.90;;;;;;5013384;28;20237;-92
2024/01/21 02:59:17;;;;;;;0.80;0.80;;;2.10;99.90;;;;;;5013887;28;20172;-92
2024/01/21 03:01:43;;;;;;;0.60;0.60;;;2.10;99.90;;;;;;5013327;28;20218;-92
2024/01/21 03:04:13;;;;;;;0.83;0.77;;;2.20;99.90;;;;;;5013615;28;20207;-92
2024/01/21 03:06:40;;;;;;;0.90;0.90;;;2.20;90.60;;;;;;5014330;28;20179;-92
2024/01/21 03:09:06;;;;;;;1.60;0.60;;;2.10;50.00;;;;;;4996383;28;20628;-92
2024/01/21 03:11:34;;;;;;;0.50;0.50;;;2.10;22.80;;;;;;5012848;28;20261;-92
2024/01/21 03:13:59;;;;;;;1.13;1.07;;;2.10;1.00;;;;;;4996593;28;20210;-90
2024/01/21 03:16:25;;;;;;;0.70;0.70;;;2.10;1.00;;;;;;4996893;28;20188;-92
2024/01/21 03:18:51;;;;;;;0.93;0.93;;;2.10;1.00;;;;;;4996589;28;20226;-93
2024/01/21 03:21:17;;;;;;;2.10;1.90;;;2.10;1.00;;;;;;5012675;28;20593;-92
2024/01/21 03:23:46;;;;;;;0.87;0.87;;;2.00;1.00;;;;;;5013107;28;20207;-91
2024/01/21 03:26:11;;;;;;;0.40;0.40;;;2.00;1.00;;;;;;4996951;28;20358;-90
2024/01/21 03:28:37;;;;;;;0.93;0.93;;;2.00;1.00;;;;;;4996578;28;20702;-91
2024/01/21 03:31:03;;;;;;;0.70;0.70;;;2.00;1.00;;;;;;5012892;28;20616;-91
2024/01/21 03:33:30;;;;;;;0.43;0.43;;;2.00;1.00;;;;;;4996701;28;20278;-91
2024/01/21 03:35:56;;;;;;;0.63;0.63;;;2.00;1.00;;;;;;5014415;28;20175;-92
2024/01/21 03:38:22;;;;;;;0.80;0.80;;;2.10;1.00;;;;;;5012752;28;20208;-92
2024/01/21 03:40:48;;;;;;;3.93;0.90;;;2.00;1.00;;;;;;4996554;28;20203;-92
2024/01/21 03:43:14;;;;;;;0.50;0.50;;;2.10;1.00;;;;;;5012417;28;20260;-92
2024/01/21 03:45:39;;;;;;;1.90;1.03;;;2.10;1.00;;;;;;4996588;28;20197;-93
2024/01/21 03:48:06;;;;;;;0.87;0.87;;;2.10;1.00;;;;;;5012930;28;20588;-92
2024/01/21 03:50:32;;;;;;;0.67;0.67;;;2.10;1.00;;;;;;5016309;28;20398;-93
2024/01/21 03:52:57;;;;;;;1.20;1.10;;;2.10;1.00;;;;;;5016986;28;20701;-91
2024/01/21 03:55:23;;;;;;;0.60;0.60;;;2.10;1.00;;;;;;4999730;28;20183;-91
2024/01/21 03:57:49;;;;;;;0.90;0.87;;;2.20;1.00;;;;;;5016316;28;20242;-91
2024/01/21 04:00:16;;;;;;;0.50;0.50;;;2.20;1.00;;;;;;4999931;28;20270;-91
2024/01/21 04:02:41;;;;;;;0.63;0.63;;;2.20;1.00;;;;;;5017505;28;20296;-92
2024/01/21 04:05:08;;;;;;;0.70;0.70;;;2.20;1.00;;;;;;4999909;28;20226;-91
2024/01/21 04:07:34;;;;;;;0.70;0.63;;;2.10;99.90;;;;;;5015992;28;20175;-92
2024/01/21 04:10:00;;;;;;;0.70;0.70;;;2.10;99.90;;;;;;5016826;28;20175;-91
2024/01/21 04:12:26;;;;;;;3.10;1.67;;;2.10;99.90;;;;;;4999599;28;20333;-92
2024/01/21 04:14:52;;;;;;;0.50;0.50;;;2.20;99.90;;;;;;5000310;28;20337;-92
2024/01/21 04:17:19;;;;;;;0.83;0.60;;;2.20;99.90;;;;;;5000028;28;20574;-92
2024/01/21 04:19:46;;;;;;;0.77;0.77;;;2.20;99.90;;;;;;5016150;28;20229;-92
2024/01/21 04:22:16;;;;;;;0.60;0.60;;;2.20;99.90;;;;;;5001037;28;20246;-90
2024/01/21 04:24:41;;;;;;;0.67;0.67;;;2.20;99.90;;;;;;5000301;28;20278;-92
2024/01/21 04:27:07;;;;;;;0.70;0.70;;;2.30;99.90;;;;;;4999828;28;20254;-92
2024/01/21 04:29:33;;;;;;;0.50;0.50;;;2.30;99.90;;;;;;4999616;28;20237;-91
2024/01/21 04:31:59;;;;;;;0.70;0.63;;;2.40;99.90;;;;;;5015702;28;20198;-92
2024/01/21 04:34:24;;;;;;;2.10;0.80;;;2.40;99.90;;;;;;4999458;28;20274;-92
2024/01/21 04:36:50;;;;;;;0.53;0.53;;;2.50;99.90;;;;;;5016314;28;20180;-93
2024/01/21 04:39:19;;;;;;;0.60;0.60;;;2.50;99.90;;;;;;4999221;28;20258;-92
2024/01/21 04:41:45;;;;;;;0.87;0.87;;;2.50;99.90;;;;;;4999537;28;20180;-91
2024/01/21 04:44:11;;;;;;;0.80;0.80;;;2.50;99.90;;;;;;4999343;28;20191;-92
2024/01/21 04:46:37;;;;;;;2.00;0.60;;;2.50;99.90;;;;;;5015930;28;20179;-91
2024/01/21 04:49:03;;;;;;;0.40;0.40;;;2.60;99.90;;;;;;5015491;28;20260;-92
2024/01/21 04:51:29;;;;;;;1.70;0.70;;;2.60;99.90;;;;;;4999311;28;20322;-91
2024/01/21 04:53:54;;;;;;;1.13;0.73;;;2.60;99.90;;;;;;4999234;28;20636;-92
2024/01/21 04:56:20;;;;;;;0.77;0.77;;;2.70;99.90;;;;;;4999369;28;20191;-92
2024/01/21 04:58:46;;;;;;;0.87;0.87;;;2.60;99.90;;;;;;5016318;28;20180;-91
2024/01/21 05:01:13;;;;;;;1.33;1.30;;;2.60;99.90;;;;;;5015380;28;20183;-93
2024/01/21 05:03:38;;;;;;;1.07;1.07;;;2.60;99.90;;;;;;5015403;28;20290;-91
2024/01/21 05:06:05;;;;;;;0.87;0.87;;;2.70;99.90;;;;;;5015479;28;20207;-92
2024/01/21 05:08:31;;;;;;;0.60;0.60;;;2.70;99.90;;;;;;4999135;28;20198;-91
2024/01/21 05:10:57;;;;;;;1.33;0.93;;;2.70;99.90;;;;;;4998580;28;20239;-90
2024/01/21 05:13:22;;;;;;;1.00;1.00;;;2.70;95.50;;;;;;4999592;28;20196;-92
2024/01/21 05:15:48;;;;;;;0.80;0.80;;;2.70;70.00;;;;;;4998973;28;20719;-91
2024/01/21 05:18:14;;;;;;;0.70;0.70;;;2.70;52.00;;;;;;4998671;28;20238;-93
2024/01/21 05:20:40;;;;;;;3.50;1.60;;;2.70;34.20;;;;;;4999239;28;20188;-91
2024/01/21 05:23:06;;;;;;;0.70;0.70;;;2.80;18.80;;;;;;4999245;28;20215;-92
2024/01/21 05:25:32;;;;;;;0.47;0.47;;;2.80;4.40;;;;;;5015531;28;20191;-90
2024/01/21 05:27:58;;;;;;;0.40;0.40;;;2.70;1.00;;;;;;5015585;28;20213;-91
2024/01/21 05:30:23;;;;;;;0.40;0.40;;;2.80;1.00;;;;;;5016531;28;20210;-92
2024/01/21 05:32:50;;;;;;;1.53;1.43;;;2.80;1.00;;;;;;4998596;28;20211;-91
2024/01/21 05:35:17;;;;;;;0.67;0.67;;;2.70;1.00;;;;;;4998683;28;20206;-90
2024/01/21 05:37:42;;;;;;;0.40;0.40;;;2.80;1.00;;;;;;4998368;28;20187;-92
2024/01/21 05:40:08;;;;;;;0.80;0.80;;;2.80;1.00;;;;;;5015009;28;20217;-88
2024/01/21 05:42:34;;;;;;;1.67;1.00;;;2.80;1.00;;;;;;4998991;28;20215;-91
2024/01/21 05:45:00;;;;;;;1.70;1.20;;;2.80;1.00;;;;;;4998360;28;20190;-90
2024/01/21 05:47:26;;;;;;;1.27;0.83;;;2.80;1.00;;;;;;4998104;28;20214;-92
2024/01/21 05:49:52;;;;;;;1.60;0.70;;;2.70;1.00;;;;;;4998607;28;20183;-92
2024/01/21 05:52:17;;;;;;;1.50;0.77;;;2.70;1.00;;;;;;5014519;28;20242;-92
2024/01/21 05:54:43;;;;;;;0.87;0.87;;;2.70;1.00;;;;;;4998972;28;20211;-92
2024/01/21 05:57:09;;;;;;;1.13;1.13;;;2.70;1.00;;;;;;4998085;28;20183;-91
2024/01/21 05:59:35;;;;;;;0.97;0.97;;;2.70;1.00;;;;;;4998380;28;20180;-92
2024/01/21 06:02:01;;;;;;;1.63;0.97;;;2.70;1.00;;;;;;4998162;28;20202;-93
2024/01/21 06:04:27;;;;;;;7.63;0.70;;;2.70;1.00;;;;;;5013987;28;20186;-91
2024/01/21 06:06:52;;;;;;;2.27;1.77;;;2.70;1.00;;;;;;4998090;28;20188;-92
2024/01/21 06:09:18;;;;;;;0.60;0.60;;;2.70;1.00;;;;;;4997694;28;20215;-92
2024/01/21 06:11:44;;;;;;;0.50;0.50;;;2.70;1.00;;;;;;5013276;28;20227;-92
2024/01/21 06:14:11;;;;;;;2.50;1.33;;;2.70;1.00;;;;;;4997829;28;20187;-92
2024/01/21 06:16:37;;;;;;;0.60;0.60;;;2.60;1.00;;;;;;5014921;28;20181;-90
2024/01/21 06:19:03;;;;;;;1.93;1.83;;;2.60;1.00;;;;;;5014001;28;20210;-92
2024/01/21 06:21:30;;;;;;;1.50;0.97;;;2.60;1.00;;;;;;4997672;28;20188;-91
2024/01/21 06:23:56;;;;;;;2.27;1.23;;;2.60;1.00;;;;;;4997688;28;20208;-92
2024/01/21 06:26:22;;;;;;;0.93;0.93;;;2.60;1.00;;;;;;5013853;28;20191;-90
2024/01/21 06:28:52;;;;;;;1.73;1.63;;;2.70;1.00;;;;;;5013513;28;20233;-92
2024/01/21 06:31:18;;;;;;;1.30;1.30;;;2.70;1.00;;;;;;4997645;28;20250;-92
2024/01/21 06:33:44;;;;;;;0.70;0.70;;;2.70;1.00;;;;;;4997502;28;20326;-91
2024/01/21 06:36:10;;;;;;;0.40;0.40;;;2.70;1.00;;;;;;4997103;28;20619;-91
2024/01/21 06:38:38;;;;;;;0.87;0.87;;;2.70;1.00;;;;;;4997264;28;20175;-91
2024/01/21 06:41:04;;;;;;;0.30;0.30;;;2.70;1.00;;;;;;5013657;28;20259;-91
2024/01/21 06:43:30;;;;;;;0.90;0.90;;;2.60;1.00;;;;;;4997054;28;20712;-91
2024/01/21 06:45:56;;;;;;;1.43;1.33;;;2.70;1.00;;;;;;5013639;28;20268;-90
2024/01/21 06:48:22;;;;;;;0.63;0.50;;;2.60;1.00;;;;;;4997976;28;20206;-90
2024/01/21 06:50:48;;;;;;;0.60;0.60;;;2.70;1.00;;;;;;5013603;28;20210;-91
2024/01/21 06:53:15;;;;;;;1.40;0.50;;;2.60;1.00;;;;;;4997871;28;20193;-89
2024/01/21 06:55:43;;;;;;;0.90;0.80;;;2.60;1.00;;;;;;4997214;28;20175;-91
2024/01/21 06:58:08;;;;;;;0.40;0.40;;;2.60;1.00;;;;;;5013224;28;20179;-91
2024/01/21 07:00:34;;;;;;;1.07;0.77;;;2.60;1.00;;;;;;5013276;28;20175;-91
2024/01/21 07:03:00;;;;;;;1.17;1.17;;;2.60;1.00;;;;;;4996805;28;20222;-91
2024/01/21 07:05:26;;;;;;;1.27;1.23;;;2.60;99.90;;;;;;5013299;28;20624;-91
2024/01/21 07:07:52;;;;;;;0.60;0.60;;;2.60;99.90;;;;;;4996975;28;20645;-91
2024/01/21 07:10:17;;;;;;;0.60;0.60;;;2.60;99.90;;;;;;4996980;28;20278;-91
2024/01/21 07:12:43;;;;;;;0.40;0.40;;;2.60;99.90;;;;;;4996744;28;20239;-96
2024/01/21 07:15:09;;;;;;;4.53;1.07;;;2.70;99.90;;;;;;4996974;28;20669;-94
2024/01/21 07:17:35;;;;;;;1.70;0.97;;;2.60;99.90;;;;;;4997463;28;20226;-94
2024/01/21 07:20:03;;;;;;;1.40;1.30;;;2.70;99.90;;;;;;4996612;28;20230;-92
2024/01/21 07:22:28;;;;;;;1.50;1.40;;;2.70;99.90;;;;;;5012582;28;20211;-94
2024/01/21 07:24:54;;;;;;;1.20;1.13;;;2.70;99.90;;;;;;4996650;28;20275;-91
2024/01/21 07:27:20;;;;;;;0.63;0.60;;;2.70;1.00;;;;;;4996605;28;20172;-93
2024/01/21 07:29:46;;;;;;;1.13;1.13;;;2.70;1.00;;;;;;5014666;28;20619;-94
2024/01/21 07:32:12;;;;;;;0.77;0.77;;;2.70;1.00;;;;;;5012962;28;20191;-92
2024/01/21 07:34:37;;;;;;;0.30;0.30;;;2.70;1.00;;;;;;4997036;28;20183;-95
2024/01/21 07:37:03;;;;;;;1.00;0.73;;;2.80;1.00;;;;;;4997168;28;20286;-93
2024/01/21 07:39:29;;;;;;;1.10;0.87;;;2.80;1.00;;;;;;5012741;28;20183;-94
2024/01/21 07:41:55;;;;;;;0.80;0.80;;;2.70;1.00;;;;;;4997073;28;20186;-92
2024/01/21 07:44:21;;;;;;;1.13;1.13;;;2.80;1.00;;;;;;4996824;28;20381;-94
2024/01/21 07:46:48;;;;;;;1.73;1.33;;;2.80;1.00;;;;;;4997408;28;20196;-95
2024/01/21 07:49:14;;;;;;;1.70;1.60;;;2.80;1.00;;;;;;5012518;28;20179;-94
2024/01/21 07:51:39;;;;;;;1.27;1.20;;;2.80;1.00;;;;;;5012722;28;20632;-92
2024/01/21 07:54:08;;;;;;;1.00;1.00;;;2.80;1.00;;;;;;4996278;28;20205;-93
2024/01/21 07:56:34;;;;;;;0.80;0.80;;;2.80;1.00;;;;;;5012908;28;20175;-94
2024/01/21 07:59:03;;;;;;;0.77;0.77;;;2.70;1.00;;;;;;4996842;28;20655;-94
2024/01/21 08:01:29;;;;;;;1.63;1.53;;;2.70;1.00;;;;;;5012785;28;20186;-93
2024/01/21 08:03:55;;;;;;;4.07;3.13;;;2.70;1.00;;;;;;5012821;28;20203;-91
2024/01/21 08:06:21;;;;;;;1.90;1.40;;;2.70;1.00;;;;;;4996549;28;20202;-93
2024/01/21 08:08:47;;;;;;;1.40;0.90;;;2.70;1.00;;;;;;4996378;28;20587;-92
2024/01/21 08:11:13;;;;;;;1.23;1.23;;;2.70;1.00;;;;;;5012838;28;20270;-94
2024/01/21 08:13:39;;;;;;;1.00;1.00;;;2.60;1.00;;;;;;4996073;28;20632;-91
2024/01/21 08:16:05;;;;;;;1.63;1.43;;;2.60;1.00;;;;;;5012766;28;20188;-92
2024/01/21 08:18:31;;;;;;;0.90;0.90;;;2.60;59.60;;;;;;5012473;28;20628;-92
2024/01/21 08:20:56;;;;;;;0.57;0.57;;;2.60;99.90;;;;;;5012818;28;20183;-93
2024/01/21 08:23:24;;;;;;;1.63;1.00;;;2.60;99.90;;;;;;5013042;28;20866;-91
2024/01/21 08:25:50;;;;;;;0.60;0.60;;;2.60;99.90;;;;;;5012520;28;20294;-92
2024/01/21 08:28:16;;;;;;;3.90;1.60;;;2.60;99.90;;;;;;5012186;28;20606;-93
2024/01/21 08:30:42;;;;;;;0.60;0.60;;;2.60;99.90;;;;;;5012407;28;20198;-92
2024/01/21 08:33:08;;;;;;;1.67;1.07;;;2.60;1.00;;;;;;5013799;28;20618;-94
2024/01/21 08:35:34;;;;;;;0.40;0.40;;;2.60;1.00;;;;;;5015213;28;20210;-92
2024/01/21 08:38:00;;;;;;;1.07;1.07;;;2.60;1.00;;;;;;5016748;28;20654;-93
2024/01/21 08:40:26;;;;;;;1.17;1.13;;;2.60;1.00;;;;;;4999348;28;20278;-92
2024/01/21 08:42:52;;;;;;;1.23;1.03;;;2.60;1.00;;;;;;4999488;28;20210;-93
2024/01/21 08:45:18;;;;;;;1.57;1.30;;;2.70;1.00;;;;;;4999407;28;20222;-91
2024/01/21 08:47:45;;;;;;;0.90;0.90;;;2.70;1.00;;;;;;5015458;28;20190;-88
2024/01/21 08:50:10;;;;;;;0.43;0.43;;;2.70;1.00;;;;;;5017159;28;20186;-92
2024/01/21 08:52:36;;;;;;;1.70;1.07;;;2.70;1.00;;;;;;4999357;28;20191;-92
2024/01/21 08:55:04;;;;;;;0.70;0.70;;;2.80;1.00;;;;;;4999082;28;20179;-93
2024/01/21 08:57:30;;;;;;;1.00;1.00;;;2.80;1.00;;;;;;4999641;28;20195;-95
2024/01/21 08:59:56;;;;;;;1.20;1.17;;;2.80;1.00;;;;;;5015667;28;20218;-94
2024/01/21 09:02:21;;;;;;;0.70;0.70;;;2.80;1.00;;;;;;5016567;28;20223;-93
2024/01/21 09:04:47;;;;;;;1.17;0.80;;;2.80;1.00;;;;;;5016018;28;20635;-92
2024/01/21 09:07:13;;;;;;;0.60;0.60;;;2.90;6.90;;;;;;5015429;28;20179;-93
2024/01/21 09:09:39;;;;;;;1.37;1.30;;;2.90;1.00;;;;;;4999218;28;20183;-92
2024/01/21 09:12:07;;;;;;;1.23;1.13;;;2.90;1.00;;;;;;5015095;28;20259;-91
2024/01/21 09:14:34;;;;;;;1.87;1.77;;;3.00;1.00;;;;;;5015832;28;20254;-94
2024/01/21 09:17:00;;;;;;;0.80;0.80;;;3.00;9.40;;;;;;5016499;28;20214;-93
2024/01/21 09:19:25;;;;;;;1.23;1.23;;;3.10;16.20;;;;;;5015156;28;20172;-93
2024/01/21 09:21:51;;;;;;;0.83;0.83;;;3.10;1.00;;;;;;5016150;28;20187;-91
2024/01/21 09:24:18;;;;;;;0.90;0.90;;;3.10;23.50;;;;;;4999269;28;20230;-92
2024/01/21 09:26:43;;;;;;;0.43;0.43;;;3.20;81.10;;;;;;5016222;28;20176;-94
2024/01/21 09:29:09;;;;;;;1.60;0.90;;;3.20;99.90;;;;;;4998778;28;20183;-91
2024/01/21 09:31:35;;;;;;;1.23;1.13;;;3.20;99.90;;;;;;5015845;28;20179;-91
2024/01/21 09:34:01;;;;;;;0.77;0.77;;;3.20;99.90;;;;;;5016105;28;20180;-90
2024/01/21 09:36:27;;;;;;;1.70;1.60;;;3.30;99.90;;;;;;5014862;28;20620;-93
2024/01/21 09:38:53;;;;;;;0.70;0.70;;;3.30;99.90;;;;;;4998447;28;20187;-91
2024/01/21 09:41:50;;;;;;;0.97;0.97;;;3.30;99.90;;;;;;4998191;28;20183;-94
2024/01/21 09:44:25;;;;;;;1.37;1.33;;;3.40;99.90;;;;;;5018099;28;20194;-96
2024/01/21 09:46:56;;;;;;;2.27;2.13;;;3.40;1.00;;;;;;5020022;28;20225;-96
2024/01/21 09:49:22;;;;;;;1.40;1.30;;;3.50;1.00;;;;;;5021394;28;20168;-96
2024/01/21 09:51:52;;;;;;;2.50;2.40;;;3.50;1.00;;;;;;5018729;28;20175;-96
2024/01/21 09:54:19;;;;;;;3.03;2.87;;;3.60;1.00;;;;;;5002863;28;20183;-95
2024/01/21 09:56:45;;;;;;;2.10;0.60;;;3.60;1.00;;;;;;5019172;28;20283;-96
2024/01/21 09:59:12;;;;;;;2.33;2.00;;;3.70;1.00;;;;;;5019369;28;20179;-96
2024/01/21 10:01:40;;;;;;;0.90;0.80;;;3.70;1.00;;;;;;5017210;28;20707;-96
2024/01/21 10:04:12;;;;;;;3.27;3.17;;;3.70;37.80;;;;;;5016196;28;20211;-95
2024/01/21 10:06:37;;;;;;;0.50;0.47;;;3.60;99.90;;;;;;5018995;28;20175;-96
2024/01/21 10:09:21;;;;;;;1.07;0.87;;;3.60;99.90;;;;;;5018662;28;20239;-95
2024/01/21 10:11:56;;;;;;;0.90;0.90;;;3.70;99.90;;;;;;5018763;28;20171;-96
2024/01/21 10:14:26;;;;;;;2.40;1.80;;;3.70;99.90;;;;;;5017648;28;20186;-95
2024/01/21 10:16:56;;;;;;;3.23;2.10;;;3.60;1.00;;;;;;5019685;28;20169;-96
2024/01/21 10:19:35;;;;;;;1.27;1.17;;;3.60;1.00;;;;;;5018887;28;20182;-94
2024/01/21 10:22:11;;;;;;;1.90;1.40;;;3.60;1.00;;;;;;5017924;28;20181;-96
2024/01/21 10:24:41;;;;;;;0.70;0.70;;;3.70;1.00;;;;;;5019168;28;20171;-94
2024/01/21 10:27:08;;;;;;;18.37;6.20;;;3.70;99.90;;;;;;5018426;28;20208;-96
2024/01/21 10:29:41;;;;;;;1.43;1.33;;;3.80;99.90;;;;;;5020922;28;20186;-95
2024/01/21 10:32:09;;;;;;;1.20;1.10;;;3.80;99.90;;;;;;5019861;28;20206;-96
2024/01/21 10:34:45;;;;;;;1.30;1.30;;;3.70;1.00;;;;;;5020229;28;20267;-96
2024/01/21 10:37:18;;;;;;;1.17;1.17;;;3.70;1.00;;;;;;5018813;28;20164;-95
2024/01/21 10:39:49;;;;;;;1.63;1.53;;;3.70;1.00;;;;;;5018748;28;20270;-95
2024/01/21 10:42:17;;;;;;;1.83;1.13;;;3.80;1.00;;;;;;5021071;28;20206;-93
2024/01/21 10:44:44;;;;;;;3.23;1.70;;;3.80;99.90;;;;;;5019732;28;20179;-96
2024/01/21 10:47:11;;;;;;;1.53;1.47;;;3.80;99.90;;;;;;5019456;28;20211;-95
2024/01/21 10:49:39;;;;;;;1.30;1.30;;;3.80;1.00;;;;;;5017596;28;20203;-96
2024/01/21 10:52:11;;;;;;;1.57;1.30;;;3.80;1.00;;;;;;5004253;28;20179;-96
2024/01/21 10:54:37;;;;;;;0.57;0.57;;;3.90;1.00;;;;;;5018994;28;20597;-94
2024/01/21 10:57:06;;;;;;;0.80;0.80;;;3.90;99.90;;;;;;5021455;28;20650;-95
2024/01/21 10:59:35;;;;;;;2.67;0.80;;;3.90;99.90;;;;;;5003571;28;20218;-94
2024/01/21 11:02:05;;;;;;;0.47;0.47;;;3.90;99.90;;;;;;5018449;28;20543;-96
2024/01/21 11:04:31;;;;;;;1.90;1.50;;;3.90;1.00;;;;;;5017694;28;20184;-95
2024/01/21 11:07:01;;;;;;;3.43;1.53;;;3.90;1.00;;;;;;5018995;28;20266;-95
2024/01/21 11:09:30;;;;;;;1.50;1.33;;;3.80;99.90;;;;;;5021425;28;20179;-95
2024/01/21 11:11:56;;;;;;;0.60;0.60;;;3.80;99.90;;;;;;5007953;28;20326;-94
2024/01/21 11:14:35;;;;;;;1.47;1.37;;;3.80;1.00;;;;;;5055413;28;20180;-96
2024/01/21 11:17:07;;;;;;;1.57;1.47;;;3.80;99.90;;;;;;5021083;28;20604;-95
2024/01/21 11:19:53;;;;;;;1.30;1.30;;;3.80;99.90;;;;;;5005312;28;20191;-96
2024/01/21 11:22:23;;;;;;;1.13;1.13;;;3.90;1.00;;;;;;5022856;28;20199;-96
2024/01/21 11:24:55;;;;;;;4.00;1.60;;;4.00;99.90;;;;;;5024452;28;20203;-96
2024/01/21 11:27:29;;;;;;;2.37;1.90;;;4.00;99.90;;;;;;5023017;28;20195;-95
2024/01/21 11:30:00;;;;;;;1.33;1.23;;;4.00;1.00;;;;;;5024484;28;20239;-95
2024/01/21 11:32:30;;;;;;;1.43;1.43;;;4.00;1.00;;;;;;5008058;28;20250;-96
2024/01/21 11:35:07;;;;;;;1.77;1.67;;;3.90;99.90;;;;;;5018745;28;20669;-95
2024/01/21 11:37:33;;;;;;;0.90;0.87;;;3.90;99.90;;;;;;5015155;28;20266;-96
2024/01/21 11:40:01;;;;;;;4.53;1.83;;;3.90;99.90;;;;;;5017259;28;20179;-96
2024/01/21 11:42:34;;;;;;;1.50;1.47;;;3.90;99.90;;;;;;5022132;28;20201;-96
2024/01/21 11:45:03;;;;;;;0.80;0.80;;;4.00;99.90;;;;;;5021494;28;20171;-96
2024/01/21 11:47:29;;;;;;;2.03;1.37;;;3.90;99.90;;;;;;5020180;28;20197;-96
2024/01/21 11:50:08;;;;;;;0.97;0.93;;;4.00;99.90;;;;;;5019371;28;20183;-95
2024/01/21 11:52:36;;;;;;;1.17;0.97;;;4.00;99.90;;;;;;5021698;28;20171;-95
2024/01/21 11:55:02;;;;;;;2.20;2.10;;;4.00;99.90;;;;;;5008048;28;20275;-94
2024/01/21 11:57:29;;;;;;;5.20;1.37;;;4.00;99.90;;;;;;4998914;28;20225;-94
2024/01/21 11:59:55;;;;;;;4.30;1.00;;;4.00;99.90;;;;;;4998934;28;20185;-93
2024/01/21 12:02:27;;;;;;;4.33;1.63;;;4.10;99.90;;;;;;5014277;28;20311;-94
2024/01/21 12:04:56;;;;;;;2.67;1.33;;;4.00;99.90;;;;;;5013159;28;20179;-95
2024/01/21 12:07:25;;;;;;;1.03;1.03;;;4.10;99.90;;;;;;4997213;28;20194;-95
2024/01/21 12:09:52;;;;;;;1.70;1.43;;;4.10;99.90;;;;;;5015362;28;20179;-95
2024/01/21 12:12:18;;;;;;;1.33;1.30;;;4.10;99.90;;;;;;5019348;28;20289;-94
2024/01/21 12:14:44;;;;;;;1.67;1.57;;;4.10;99.90;;;;;;5022376;28;20183;-94
2024/01/21 12:17:10;;;;;;;0.83;0.83;;;4.10;99.90;;;;;;5031900;28;20175;-94
2024/01/21 12:19:41;;;;;;;1.43;1.33;;;4.30;99.90;;;;;;5023203;28;20191;-95
2024/01/21 12:22:07;;;;;;;4.07;1.80;;;4.20;99.90;;;;;;5000511;28;20653;-91
2024/01/21 12:24:39;;;;;;;2.27;2.17;;;4.40;99.90;;;;;;5016189;28;20184;-93
2024/01/21 12:27:05;;;;;;;0.90;0.90;;;4.40;99.90;;;;;;5015594;28;20168;-91
2024/01/21 12:29:37;;;;;;;1.43;1.00;;;4.30;99.90;;;;;;4999787;28;20241;-92
2024/01/21 12:32:06;;;;;;;2.10;1.30;;;4.50;99.90;;;;;;5015767;28;20267;-91
2024/01/21 12:34:33;;;;;;;1.57;1.43;;;4.40;99.90;;;;;;5015629;28;20620;-92
2024/01/21 12:36:59;;;;;;;1.93;1.30;;;4.50;99.90;;;;;;5015830;28;20191;-92
2024/01/21 12:39:25;;;;;;;0.67;0.60;;;4.50;99.90;;;;;;5000055;28;20635;-92
2024/01/21 12:41:51;;;;;;;2.17;2.07;;;4.50;99.90;;;;;;4999654;28;20267;-92
2024/01/21 12:44:16;;;;;;;1.83;1.47;;;4.50;99.90;;;;;;4999516;28;20207;-92
2024/01/21 12:46:45;;;;;;;1.77;1.67;;;4.50;99.90;;;;;;4999511;28;20274;-90
2024/01/21 12:49:10;;;;;;;1.77;1.67;;;4.50;99.90;;;;;;4999434;28;20744;-92
2024/01/21 12:51:36;;;;;;;1.20;1.17;;;4.60;99.90;;;;;;4999161;28;20238;-92
2024/01/21 12:54:02;;;;;;;2.07;1.97;;;4.60;99.90;;;;;;5016783;28;20199;-94
2024/01/21 12:56:28;;;;;;;1.20;1.10;;;4.50;99.90;;;;;;4998869;28;20179;-89
2024/01/21 12:58:54;;;;;;;0.60;0.60;;;4.60;99.90;;;;;;4999508;28;20186;-92
2024/01/21 13:01:20;;;;;;;2.80;1.90;;;4.60;99.90;;;;;;4999860;28;20183;-92